Time;durP1;ratioP1;P1;durP2;ratioP2;P2;SDS_P1;SDS_P2;PMS_P1;PMS_P2;Temp;Humidity;BMP_temperature;BMP_pressure;BME280_temperature;BME280_humidity;BME280_pressure;Samples;Min_cycle;Max_cycle;Signal;HPM_P1;HPM_P2
2021/10/19 00:01:19;;;;;;;15.40;10.17;;;9.80;88.40;;;;;;5037715;28;20770;-90
2021/10/19 00:03:44;;;;;;;18.93;12.93;;;9.80;88.40;;;;;;5054471;28;20172;-90
2021/10/19 00:06:10;;;;;;;19.73;11.63;;;9.80;88.30;;;;;;5037698;28;20196;-90
2021/10/19 00:08:36;;;;;;;15.80;11.30;;;9.80;88.30;;;;;;5055481;28;20172;-90
2021/10/19 00:11:02;;;;;;;12.40;11.17;;;9.90;88.10;;;;;;5055786;28;20191;-90
2021/10/19 00:13:28;;;;;;;16.40;12.07;;;9.90;88.00;;;;;;5037721;28;20545;-91
2021/10/19 00:15:54;;;;;;;18.83;11.87;;;10.00;87.80;;;;;;5037519;28;20211;-90
2021/10/19 00:18:19;;;;;;;15.80;11.70;;;10.00;87.70;;;;;;5038039;28;20218;-90
2021/10/19 00:20:45;;;;;;;16.27;11.67;;;10.00;87.60;;;;;;5055286;28;20203;-90
2021/10/19 00:23:11;;;;;;;14.77;11.77;;;10.10;87.50;;;;;;5055239;28;20176;-90
2021/10/19 00:25:37;;;;;;;15.90;11.77;;;10.10;87.50;;;;;;5037348;28;20273;-90
2021/10/19 00:28:04;;;;;;;16.63;12.33;;;10.10;87.50;;;;;;5055248;28;20203;-90
2021/10/19 00:30:31;;;;;;;18.83;11.97;;;10.10;87.50;;;;;;5037309;28;20182;-89
2021/10/19 00:32:57;;;;;;;15.27;11.67;;;10.10;87.50;;;;;;5037250;28;20213;-90
2021/10/19 00:35:23;;;;;;;16.50;11.83;;;10.20;87.40;;;;;;5037244;28;20601;-90
2021/10/19 00:37:48;;;;;;;18.83;12.73;;;10.20;87.20;;;;;;5055154;28;20176;-89
2021/10/19 00:40:14;;;;;;;17.37;12.20;;;10.20;87.30;;;;;;5054970;28;20172;-90
2021/10/19 00:42:40;;;;;;;19.10;12.70;;;10.20;87.40;;;;;;5037068;28;20267;-90
2021/10/19 00:45:07;;;;;;;16.83;12.77;;;10.10;87.50;;;;;;5037350;28;20291;-90
2021/10/19 00:47:35;;;;;;;19.63;13.17;;;10.20;87.50;;;;;;5037642;28;20734;-89
2021/10/19 00:50:02;;;;;;;18.23;12.20;;;10.20;87.60;;;;;;5054799;28;20168;-89
2021/10/19 00:52:27;;;;;;;20.93;14.10;;;10.20;87.70;;;;;;5054772;28;20176;-90
2021/10/19 00:54:54;;;;;;;18.17;13.03;;;10.20;87.60;;;;;;5037159;28;20187;-90
2021/10/19 00:57:20;;;;;;;20.40;12.40;;;10.20;87.70;;;;;;5036754;28;20267;-90
2021/10/19 00:59:47;;;;;;;18.83;12.77;;;10.20;87.70;;;;;;5036831;28;20176;-90
2021/10/19 01:02:14;;;;;;;18.43;13.33;;;10.20;87.90;;;;;;5036624;28;20227;-90
2021/10/19 01:04:41;;;;;;;19.17;12.60;;;10.20;88.10;;;;;;5036910;28;20176;-90
2021/10/19 01:07:08;;;;;;;17.37;13.70;;;10.10;88.00;;;;;;5036516;28;20206;-90
2021/10/19 01:09:37;;;;;;;17.23;13.73;;;10.20;87.80;;;;;;5054445;28;20626;-90
2021/10/19 01:12:04;;;;;;;20.37;13.43;;;10.20;87.90;;;;;;5036494;28;20719;-89
2021/10/19 01:14:30;;;;;;;20.90;13.80;;;10.20;87.70;;;;;;5036422;28;20549;-90
2021/10/19 01:16:55;;;;;;;19.73;13.77;;;10.20;87.90;;;;;;5036391;28;20257;-90
2021/10/19 01:19:22;;;;;;;19.77;14.10;;;10.20;88.00;;;;;;5054251;28;20309;-90
2021/10/19 01:22:10;;;;;;;21.33;15.30;;;10.20;88.00;;;;;;5036311;28;20569;-90
2021/10/19 01:24:35;;;;;;;20.77;13.33;;;10.20;87.90;;;;;;5036372;28;20163;-90
2021/10/19 01:27:01;;;;;;;18.07;13.90;;;10.30;87.80;;;;;;5054058;28;20199;-90
2021/10/19 01:29:27;;;;;;;22.63;15.40;;;10.20;88.00;;;;;;5054028;28;20658;-90
2021/10/19 01:31:55;;;;;;;24.80;14.97;;;10.30;88.00;;;;;;5053942;28;20253;-90
2021/10/19 01:34:21;;;;;;;15.30;12.53;;;10.30;87.80;;;;;;5036113;28;20763;-90
2021/10/19 01:36:48;;;;;;;20.20;14.40;;;10.30;87.80;;;;;;5053916;28;20200;-90
2021/10/19 01:39:15;;;;;;;20.83;14.87;;;10.30;87.70;;;;;;5035978;28;20188;-89
2021/10/19 01:41:46;;;;;;;20.13;14.60;;;10.30;87.50;;;;;;5035894;28;20286;-90
2021/10/19 01:44:12;;;;;;;21.70;15.60;;;10.40;87.40;;;;;;5036056;28;20169;-90
2021/10/19 01:46:38;;;;;;;21.73;14.70;;;10.40;87.40;;;;;;5036126;28;20215;-90
2021/10/19 01:49:04;;;;;;;19.53;15.50;;;10.40;87.30;;;;;;5035778;28;20179;-90
2021/10/19 01:51:30;;;;;;;20.03;14.07;;;10.40;87.20;;;;;;5035923;28;20217;-90
2021/10/19 01:53:56;;;;;;;23.00;16.00;;;10.40;87.20;;;;;;5035729;28;20180;-90
2021/10/19 01:56:21;;;;;;;21.83;14.63;;;10.40;87.30;;;;;;5053640;28;20206;-90
2021/10/19 01:58:47;;;;;;;19.77;15.83;;;10.50;87.50;;;;;;5035735;28;20184;-90
2021/10/19 02:01:13;;;;;;;22.17;15.47;;;10.40;87.50;;;;;;5053706;28;20214;-90
2021/10/19 02:03:38;;;;;;;21.83;14.93;;;10.50;87.50;;;;;;5053463;28;20263;-91
2021/10/19 02:06:06;;;;;;;21.03;14.70;;;10.50;87.70;;;;;;5035590;28;20196;-91
2021/10/19 02:08:33;;;;;;;22.07;14.50;;;10.50;87.90;;;;;;5035932;28;20168;-91
2021/10/19 02:10:59;;;;;;;21.20;14.57;;;10.50;87.90;;;;;;5035917;28;20232;-91
2021/10/19 02:13:25;;;;;;;19.60;15.13;;;10.50;87.70;;;;;;5053311;28;20173;-90
2021/10/19 02:15:50;;;;;;;20.60;15.00;;;10.50;87.30;;;;;;5053286;28;20245;-90
2021/10/19 02:18:16;;;;;;;23.83;15.53;;;10.50;87.50;;;;;;5035490;28;20253;-90
2021/10/19 02:20:42;;;;;;;24.80;16.30;;;10.40;87.60;;;;;;5035392;28;20196;-90
2021/10/19 02:23:08;;;;;;;23.53;15.10;;;10.40;87.60;;;;;;5035449;28;20322;-90
2021/10/19 02:25:34;;;;;;;21.33;15.73;;;10.40;87.70;;;;;;5035028;28;20171;-90
2021/10/19 02:28:00;;;;;;;22.43;15.77;;;10.40;87.70;;;;;;5035060;28;20663;-90
2021/10/19 02:30:26;;;;;;;21.93;16.03;;;10.40;87.60;;;;;;5035338;28;20176;-90
2021/10/19 02:32:54;;;;;;;27.33;16.47;;;10.50;87.40;;;;;;5035315;28;20172;-90
2021/10/19 02:35:21;;;;;;;20.87;16.20;;;10.50;87.40;;;;;;5053129;28;20172;-90
2021/10/19 02:37:48;;;;;;;24.60;16.37;;;10.50;87.50;;;;;;5053028;28;20206;-90
2021/10/19 02:40:15;;;;;;;25.90;16.20;;;10.50;87.50;;;;;;5052998;28;20179;-90
2021/10/19 02:42:41;;;;;;;24.13;16.27;;;10.40;87.50;;;;;;5035600;28;20207;-90
2021/10/19 02:45:08;;;;;;;25.03;16.60;;;10.40;87.60;;;;;;5053314;28;20183;-90
2021/10/19 02:47:34;;;;;;;24.50;17.20;;;10.40;87.50;;;;;;5035289;28;20218;-90
2021/10/19 02:50:00;;;;;;;25.57;17.93;;;10.40;87.50;;;;;;5053048;28;20246;-90
2021/10/19 02:52:25;;;;;;;24.90;17.53;;;10.50;87.30;;;;;;5035245;28;20219;-90
2021/10/19 02:54:51;;;;;;;27.90;17.10;;;10.40;87.30;;;;;;5052997;28;20644;-90
2021/10/19 02:57:18;;;;;;;23.80;17.60;;;10.40;87.30;;;;;;5053140;28;20668;-90
2021/10/19 02:59:43;;;;;;;23.90;17.60;;;10.40;87.20;;;;;;5035149;28;20256;-90
2021/10/19 03:02:09;;;;;;;23.03;17.40;;;10.40;87.10;;;;;;5052770;28;20287;-90
2021/10/19 03:04:35;;;;;;;22.53;16.63;;;10.40;87.20;;;;;;5052826;28;20247;-90
2021/10/19 03:07:00;;;;;;;24.93;17.47;;;10.40;87.30;;;;;;5034899;28;20346;-91
2021/10/19 03:09:26;;;;;;;29.50;17.97;;;10.40;87.40;;;;;;5052875;28;20168;-90
2021/10/19 03:11:52;;;;;;;30.27;18.17;;;10.40;87.40;;;;;;5035024;28;20180;-90
2021/10/19 03:14:17;;;;;;;27.60;18.03;;;10.40;87.40;;;;;;5053020;28;20177;-90
2021/10/19 03:16:43;;;;;;;24.97;17.80;;;10.40;87.40;;;;;;5034911;28;20204;-90
2021/10/19 03:19:09;;;;;;;27.30;18.27;;;10.40;87.50;;;;;;5034986;28;20266;-90
2021/10/19 03:21:34;;;;;;;24.43;17.60;;;10.40;87.60;;;;;;5035097;28;20323;-90
2021/10/19 03:24:00;;;;;;;27.60;18.50;;;10.40;87.70;;;;;;5034930;28;20259;-90
2021/10/19 03:26:25;;;;;;;29.80;19.00;;;10.40;87.90;;;;;;5052552;28;20622;-90
2021/10/19 03:28:51;;;;;;;24.53;18.50;;;10.30;87.90;;;;;;5053021;28;20679;-90
2021/10/19 03:31:17;;;;;;;28.83;19.10;;;10.30;87.80;;;;;;5052644;28;20263;-90
2021/10/19 03:33:43;;;;;;;25.40;18.20;;;10.40;87.70;;;;;;5052592;28;20176;-90
2021/10/19 03:36:09;;;;;;;29.50;19.30;;;10.40;87.80;;;;;;5034725;28;20204;-90
2021/10/19 03:38:36;;;;;;;28.17;19.13;;;10.30;87.90;;;;;;5037527;28;20229;-90
2021/10/19 03:41:02;;;;;;;29.10;18.77;;;10.40;87.90;;;;;;5038484;28;20291;-90
2021/10/19 03:43:28;;;;;;;26.57;19.13;;;10.40;88.00;;;;;;5038206;28;20188;-90
2021/10/19 03:45:54;;;;;;;30.13;19.87;;;10.40;88.00;;;;;;5038059;28;20199;-90
2021/10/19 03:48:19;;;;;;;26.30;19.93;;;10.40;88.00;;;;;;5038161;28;20215;-90
2021/10/19 03:50:45;;;;;;;30.63;19.20;;;10.50;87.90;;;;;;5038496;28;20207;-90
2021/10/19 03:53:11;;;;;;;26.70;19.23;;;10.50;87.90;;;;;;5038244;28;20180;-90
2021/10/19 03:55:37;;;;;;;24.37;19.47;;;10.50;87.90;;;;;;5038185;28;20186;-90
2021/10/19 03:58:03;;;;;;;32.97;20.77;;;10.40;88.00;;;;;;5037941;28;20183;-90
2021/10/19 04:00:28;;;;;;;30.43;19.73;;;10.50;88.00;;;;;;5037860;28;20187;-90
2021/10/19 04:02:54;;;;;;;29.93;21.00;;;10.50;88.00;;;;;;5037867;28;20212;-90
2021/10/19 04:05:20;;;;;;;34.23;22.47;;;10.50;88.00;;;;;;5038417;28;20176;-90
2021/10/19 04:07:46;;;;;;;31.53;21.03;;;10.60;87.70;;;;;;5038131;28;20195;-90
2021/10/19 04:10:14;;;;;;;30.63;21.47;;;10.60;87.60;;;;;;5037801;28;20187;-90
2021/10/19 04:12:39;;;;;;;29.67;20.43;;;10.60;87.30;;;;;;5037563;28;20180;-90
2021/10/19 04:15:06;;;;;;;30.80;21.33;;;10.70;87.20;;;;;;5037862;28;20245;-90
2021/10/19 04:17:32;;;;;;;29.60;20.10;;;10.70;87.20;;;;;;5055337;28;20223;-90
2021/10/19 04:19:57;;;;;;;31.70;22.50;;;10.70;87.10;;;;;;5055422;28;20656;-90
2021/10/19 04:22:23;;;;;;;32.77;22.87;;;10.70;87.10;;;;;;5037563;28;20575;-90
2021/10/19 04:24:52;;;;;;;29.37;21.73;;;10.80;87.00;;;;;;5055356;28;20168;-90
2021/10/19 04:27:18;;;;;;;31.27;22.47;;;10.70;87.10;;;;;;5037302;28;20257;-90
2021/10/19 04:29:44;;;;;;;35.27;23.43;;;10.80;87.00;;;;;;5037406;28;20263;-90
2021/10/19 04:32:09;;;;;;;30.90;21.43;;;10.80;87.10;;;;;;5037371;28;20317;-90
2021/10/19 04:34:35;;;;;;;33.03;22.60;;;10.80;87.10;;;;;;5055434;28;20179;-90
2021/10/19 04:37:01;;;;;;;35.03;22.80;;;10.80;87.20;;;;;;5037150;28;20207;-90
2021/10/19 04:39:28;;;;;;;33.07;21.97;;;10.80;87.30;;;;;;5037292;28;20191;-90
2021/10/19 04:41:54;;;;;;;32.37;21.60;;;10.80;87.50;;;;;;5037354;28;20204;-90
2021/10/19 04:44:19;;;;;;;34.47;21.93;;;10.70;87.50;;;;;;5037088;28;20178;-91
2021/10/19 04:46:45;;;;;;;34.60;22.13;;;10.80;87.70;;;;;;5036803;28;20215;-90
2021/10/19 04:49:11;;;;;;;31.73;22.07;;;10.80;87.70;;;;;;5054276;28;20206;-89
2021/10/19 04:51:37;;;;;;;31.83;22.73;;;10.70;87.70;;;;;;5036949;28;20187;-90
2021/10/19 04:54:02;;;;;;;35.70;22.57;;;10.70;87.80;;;;;;5037639;28;20685;-90
2021/10/19 04:56:28;;;;;;;35.17;22.30;;;10.80;87.80;;;;;;5054705;28;20274;-89
2021/10/19 04:58:54;;;;;;;33.87;22.07;;;10.80;87.90;;;;;;5054654;28;20195;-90
2021/10/19 05:01:19;;;;;;;38.27;24.00;;;10.70;87.90;;;;;;5036815;28;20200;-90
2021/10/19 05:03:46;;;;;;;32.33;23.13;;;10.80;87.90;;;;;;5036778;28;20640;-90
2021/10/19 05:06:14;;;;;;;36.10;22.90;;;10.80;87.80;;;;;;5037178;28;20224;-90
2021/10/19 05:08:41;;;;;;;35.27;22.23;;;10.80;87.70;;;;;;5054453;28;20199;-90
2021/10/19 05:11:06;;;;;;;31.43;22.30;;;10.90;87.70;;;;;;5054560;28;20210;-90
2021/10/19 05:13:32;;;;;;;41.13;24.30;;;10.90;87.70;;;;;;5036523;28;20207;-90
2021/10/19 05:15:58;;;;;;;35.10;24.03;;;10.90;87.60;;;;;;5036472;28;20679;-90
2021/10/19 05:18:23;;;;;;;28.53;22.50;;;10.90;87.60;;;;;;5036838;28;20624;-90
2021/10/19 05:20:49;;;;;;;31.67;22.87;;;10.90;87.70;;;;;;5036266;28;20306;-90
2021/10/19 05:23:14;;;;;;;38.87;23.87;;;10.90;87.80;;;;;;5054101;28;20191;-90
2021/10/19 05:25:40;;;;;;;37.83;24.00;;;10.80;87.80;;;;;;5036374;28;20182;-90
2021/10/19 05:28:06;;;;;;;36.77;24.20;;;10.90;87.90;;;;;;5036260;28;20706;-90
2021/10/19 05:30:32;;;;;;;36.57;24.80;;;10.90;88.00;;;;;;5036512;28;20267;-90
2021/10/19 05:32:58;;;;;;;35.23;24.83;;;10.90;88.00;;;;;;5054034;28;20249;-91
2021/10/19 05:35:24;;;;;;;32.47;23.93;;;10.90;88.10;;;;;;5036230;28;20184;-90
2021/10/19 05:37:50;;;;;;;31.77;23.73;;;10.90;88.10;;;;;;5036069;28;20176;-90
2021/10/19 05:40:16;;;;;;;33.37;23.77;;;11.00;87.90;;;;;;5036064;28;20180;-90
2021/10/19 05:42:41;;;;;;;30.37;22.43;;;11.00;88.00;;;;;;5036216;28;20203;-90
2021/10/19 05:45:08;;;;;;;33.47;23.97;;;11.00;88.10;;;;;;5036423;28;20591;-90
2021/10/19 05:47:34;;;;;;;34.47;23.63;;;11.00;88.00;;;;;;5036100;28;20214;-90
2021/10/19 05:50:00;;;;;;;40.20;24.33;;;11.00;88.00;;;;;;5035875;28;20172;-90
2021/10/19 05:52:27;;;;;;;36.30;24.57;;;11.00;87.90;;;;;;5035729;28;20176;-90
2021/10/19 05:54:53;;;;;;;34.97;25.00;;;11.10;87.80;;;;;;5035854;28;20263;-90
2021/10/19 05:57:19;;;;;;;34.07;23.43;;;11.10;87.80;;;;;;5035636;28;20242;-90
2021/10/19 05:59:44;;;;;;;36.93;25.00;;;11.10;87.90;;;;;;5053496;28;20168;-90
2021/10/19 06:02:10;;;;;;;33.80;24.57;;;11.10;87.90;;;;;;5034890;28;20211;-90
2021/10/19 06:04:36;;;;;;;44.77;27.13;;;11.10;88.00;;;;;;5035637;28;20172;-90
2021/10/19 06:07:02;;;;;;;34.03;23.33;;;11.10;88.00;;;;;;5035596;28;20226;-91
2021/10/19 06:09:29;;;;;;;34.37;23.90;;;11.10;87.90;;;;;;5053413;28;20195;-90
2021/10/19 06:11:55;;;;;;;35.60;23.10;;;11.10;87.90;;;;;;5035604;28;20195;-90
2021/10/19 06:14:23;;;;;;;31.33;23.00;;;11.20;88.00;;;;;;5036008;28;20221;-90
2021/10/19 06:16:49;;;;;;;36.90;24.53;;;11.20;88.10;;;;;;5035333;28;20203;-90
2021/10/19 06:19:15;;;;;;;36.83;24.17;;;11.20;88.00;;;;;;5053254;28;20172;-90
2021/10/19 06:21:42;;;;;;;36.03;24.20;;;11.20;87.90;;;;;;5053253;28;20230;-90
2021/10/19 06:24:08;;;;;;;33.00;23.37;;;11.20;87.90;;;;;;5035343;28;20636;-90
2021/10/19 06:26:35;;;;;;;32.77;24.50;;;11.20;87.90;;;;;;5035382;28;20196;-90
2021/10/19 06:29:10;;;;;;;36.57;25.63;;;11.30;87.90;;;;;;5035336;28;20183;-90
2021/10/19 06:31:36;;;;;;;38.30;24.00;;;11.30;87.90;;;;;;5035379;28;20270;-90
2021/10/19 06:34:02;;;;;;;37.67;23.90;;;11.30;88.00;;;;;;5035524;28;20222;-91
2021/10/19 06:36:28;;;;;;;34.00;24.10;;;11.30;88.20;;;;;;5035255;28;20202;-90
2021/10/19 06:38:54;;;;;;;36.23;24.27;;;11.30;88.30;;;;;;5035226;28;20177;-91
2021/10/19 06:41:21;;;;;;;35.23;24.83;;;11.30;88.20;;;;;;5035263;28;20318;-90
2021/10/19 06:43:47;;;;;;;38.27;23.93;;;11.30;88.20;;;;;;5035138;28;20183;-90
2021/10/19 06:46:13;;;;;;;32.93;24.43;;;11.40;88.20;;;;;;5035563;28;20204;-90
2021/10/19 06:48:39;;;;;;;34.50;24.20;;;11.40;88.10;;;;;;5035259;28;20640;-91
2021/10/19 06:51:05;;;;;;;36.87;23.47;;;11.40;88.20;;;;;;5053045;28;20187;-91
2021/10/19 06:53:34;;;;;;;31.43;23.07;;;11.40;88.20;;;;;;5035257;28;20222;-91
2021/10/19 06:56:01;;;;;;;30.30;23.00;;;11.50;88.30;;;;;;5035001;28;20200;-91
2021/10/19 06:58:27;;;;;;;28.30;22.10;;;11.50;88.30;;;;;;5035085;28;20207;-91
2021/10/19 07:00:54;;;;;;;34.50;23.50;;;11.50;88.40;;;;;;5035041;28;20690;-91
2021/10/19 07:03:21;;;;;;;32.07;22.47;;;11.60;88.40;;;;;;5035004;28;20176;-90
2021/10/19 07:05:47;;;;;;;33.77;23.40;;;11.60;88.40;;;;;;5052825;28;20559;-90
2021/10/19 07:08:12;;;;;;;37.03;23.10;;;11.60;88.20;;;;;;5035126;28;20172;-90
2021/10/19 07:10:40;;;;;;;33.63;24.60;;;11.60;88.30;;;;;;5034992;28;20222;-90
2021/10/19 07:13:06;;;;;;;32.60;22.87;;;11.70;88.10;;;;;;5036890;28;20202;-90
2021/10/19 07:15:35;;;;;;;31.87;23.23;;;11.70;88.30;;;;;;5038710;28;20177;-90
2021/10/19 07:18:06;;;;;;;30.33;24.13;;;11.70;88.20;;;;;;5038750;28;20654;-90
2021/10/19 07:20:32;;;;;;;31.43;22.63;;;11.80;88.30;;;;;;5038656;28;20221;-90
2021/10/19 07:22:59;;;;;;;32.37;22.03;;;11.90;88.10;;;;;;5038664;28;20207;-90
2021/10/19 07:25:26;;;;;;;34.23;22.10;;;12.00;87.80;;;;;;5038418;28;20186;-90
2021/10/19 07:27:52;;;;;;;32.43;23.30;;;12.10;87.30;;;;;;5038552;28;20183;-90
2021/10/19 07:30:18;;;;;;;30.83;23.60;;;12.20;87.30;;;;;;5038457;28;20176;-90
2021/10/19 07:32:44;;;;;;;32.17;21.67;;;12.30;87.40;;;;;;5038439;28;20183;-90
2021/10/19 07:35:10;;;;;;;33.93;24.67;;;12.30;87.40;;;;;;5038496;28;20659;-90
2021/10/19 07:37:37;;;;;;;33.27;23.07;;;12.30;87.30;;;;;;5039203;28;20235;-90
2021/10/19 07:40:07;;;;;;;30.70;21.73;;;12.40;87.10;;;;;;5038380;28;20238;-90
2021/10/19 07:42:33;;;;;;;34.60;22.17;;;12.40;86.60;;;;;;5038250;28;20646;-90
2021/10/19 07:45:00;;;;;;;34.03;22.57;;;12.50;86.50;;;;;;5038531;28;20302;-90
2021/10/19 07:47:26;;;;;;;31.87;23.37;;;12.50;86.70;;;;;;5038427;28;20215;-90
2021/10/19 07:49:52;;;;;;;31.67;22.63;;;12.50;86.70;;;;;;5056416;28;20180;-91
2021/10/19 07:52:18;;;;;;;30.87;22.27;;;12.60;86.50;;;;;;5038361;28;20258;-90
2021/10/19 07:54:43;;;;;;;31.00;21.53;;;12.70;86.40;;;;;;5038066;28;20551;-90
2021/10/19 07:57:09;;;;;;;30.30;22.00;;;12.70;86.30;;;;;;5038003;28;20283;-90
2021/10/19 07:59:35;;;;;;;30.30;21.23;;;12.70;86.20;;;;;;5056088;28;20179;-90
2021/10/19 08:02:00;;;;;;;27.57;19.90;;;12.70;86.10;;;;;;5037801;28;20579;-90
2021/10/19 08:04:27;;;;;;;28.30;21.43;;;12.80;86.10;;;;;;5037809;28;20196;-90
2021/10/19 08:06:52;;;;;;;26.07;18.63;;;12.80;86.20;;;;;;5038057;28;20211;-90
2021/10/19 08:09:18;;;;;;;25.90;19.97;;;12.80;86.20;;;;;;5037801;28;20172;-90
2021/10/19 08:11:44;;;;;;;29.63;21.30;;;12.90;85.90;;;;;;5037797;28;20191;-90
2021/10/19 08:14:10;;;;;;;33.97;22.17;;;13.00;86.20;;;;;;5037707;28;20176;-90
2021/10/19 08:16:35;;;;;;;27.13;21.00;;;13.00;86.00;;;;;;5037661;28;20279;-89
2021/10/19 08:19:01;;;;;;;26.37;18.63;;;13.00;86.20;;;;;;5037737;28;20183;-90
2021/10/19 08:21:27;;;;;;;30.63;21.07;;;13.00;86.30;;;;;;5055308;28;20196;-90
2021/10/19 08:23:53;;;;;;;30.80;20.20;;;13.00;86.50;;;;;;5036862;28;20242;-90
2021/10/19 08:26:18;;;;;;;27.87;20.63;;;13.00;86.50;;;;;;5055226;28;20656;-90
2021/10/19 08:28:44;;;;;;;28.90;20.97;;;13.00;86.60;;;;;;5037426;28;20172;-90
2021/10/19 08:31:13;;;;;;;28.97;20.60;;;13.00;86.60;;;;;;5037501;28;20179;-90
2021/10/19 08:33:39;;;;;;;26.53;19.90;;;13.10;86.70;;;;;;5037303;28;20172;-90
2021/10/19 08:36:04;;;;;;;29.33;19.93;;;13.10;86.70;;;;;;5037313;28;20567;-90
2021/10/19 08:38:30;;;;;;;25.13;18.77;;;13.10;86.50;;;;;;5055117;28;20171;-90
2021/10/19 08:40:57;;;;;;;27.53;19.23;;;13.10;86.40;;;;;;5037960;28;20398;-90
2021/10/19 08:43:22;;;;;;;29.23;20.93;;;13.20;86.30;;;;;;5037129;28;20182;-91
2021/10/19 08:45:49;;;;;;;28.47;17.50;;;13.20;86.20;;;;;;5036917;28;20196;-90
2021/10/19 08:48:14;;;;;;;23.27;17.90;;;13.30;86.20;;;;;;5037643;28;20539;-90
2021/10/19 08:50:40;;;;;;;25.90;19.77;;;13.30;86.10;;;;;;5036995;28;20168;-90
2021/10/19 08:53:06;;;;;;;23.07;18.83;;;13.30;86.40;;;;;;5036951;28;20183;-90
2021/10/19 08:55:32;;;;;;;24.40;18.17;;;13.40;85.90;;;;;;5036976;28;20172;-90
2021/10/19 08:58:02;;;;;;;23.13;17.73;;;13.40;85.70;;;;;;5037182;28;20176;-90
2021/10/19 09:00:29;;;;;;;21.93;16.97;;;13.50;86.10;;;;;;5036836;28;20203;-90
2021/10/19 09:02:55;;;;;;;23.17;16.13;;;13.50;86.00;;;;;;5054669;28;20667;-90
2021/10/19 09:05:24;;;;;;;25.57;18.60;;;13.50;85.70;;;;;;5054613;28;20581;-90
2021/10/19 09:08:05;;;;;;;23.77;18.70;;;13.50;86.20;;;;;;5036983;28;20237;-90
2021/10/19 09:10:37;;;;;;;27.83;18.30;;;13.50;86.00;;;;;;5054524;28;20156;-90
2021/10/19 09:13:05;;;;;;;27.07;18.47;;;13.50;86.20;;;;;;5036560;28;20620;-90
2021/10/19 09:15:36;;;;;;;29.60;17.63;;;13.50;86.30;;;;;;5054415;28;20169;-90
2021/10/19 09:18:04;;;;;;;22.27;16.03;;;13.50;86.30;;;;;;5036807;28;20165;-90
2021/10/19 09:20:39;;;;;;;28.00;18.77;;;13.60;86.20;;;;;;5036384;28;20179;-90
2021/10/19 09:23:05;;;;;;;22.30;16.40;;;13.60;86.20;;;;;;5036442;28;20171;-90
2021/10/19 09:25:43;;;;;;;25.50;18.10;;;13.60;86.10;;;;;;5054142;28;20211;-89
2021/10/19 09:28:10;;;;;;;23.97;17.57;;;13.70;86.30;;;;;;5036427;28;20164;-89
2021/10/19 09:30:41;;;;;;;23.97;17.93;;;13.70;86.40;;;;;;5036223;28;20660;-89
2021/10/19 09:33:10;;;;;;;22.50;16.73;;;13.80;86.40;;;;;;5036137;28;20210;-89
2021/10/19 09:35:36;;;;;;;19.77;16.00;;;13.80;85.90;;;;;;5035863;28;20176;-91
2021/10/19 09:38:09;;;;;;;20.97;16.87;;;13.80;85.80;;;;;;5036135;28;20191;-91
2021/10/19 09:40:47;;;;;;;21.00;14.47;;;13.80;85.80;;;;;;5036045;28;20168;-91
2021/10/19 09:43:19;;;;;;;24.77;17.20;;;13.90;85.80;;;;;;5036321;28;20160;-89
2021/10/19 09:45:51;;;;;;;22.23;16.80;;;13.90;86.00;;;;;;5035778;28;20203;-91
2021/10/19 09:48:27;;;;;;;21.13;16.50;;;14.00;86.10;;;;;;5036045;28;20175;-90
2021/10/19 09:50:54;;;;;;;20.67;15.43;;;14.00;85.80;;;;;;5036291;28;20178;-89
2021/10/19 09:53:22;;;;;;;21.60;16.70;;;14.10;85.90;;;;;;5035888;28;20652;-89
2021/10/19 09:55:52;;;;;;;23.60;15.60;;;14.10;85.70;;;;;;5053553;28;20207;-89
2021/10/19 09:58:19;;;;;;;21.00;15.87;;;14.10;85.20;;;;;;5036085;28;20191;-91
2021/10/19 10:00:45;;;;;;;23.63;16.03;;;14.20;85.30;;;;;;5053827;28;20190;-89
2021/10/19 10:03:14;;;;;;;24.47;15.23;;;14.20;85.60;;;;;;5036267;28;20176;-89
2021/10/19 10:05:41;;;;;;;19.27;14.13;;;14.30;85.30;;;;;;5035584;28;20191;-89
2021/10/19 10:08:23;;;;;;;23.40;16.70;;;14.30;85.20;;;;;;5053468;28;20675;-89
2021/10/19 10:10:56;;;;;;;21.70;15.73;;;14.40;85.70;;;;;;5035632;28;20624;-89
2021/10/19 10:13:23;;;;;;;25.47;15.97;;;14.50;85.50;;;;;;5036444;28;20310;-89
2021/10/19 10:15:49;;;;;;;22.57;16.60;;;14.50;85.30;;;;;;5035413;28;20192;-89
2021/10/19 10:18:15;;;;;;;23.40;15.57;;;14.50;85.60;;;;;;5035499;28;20180;-89
2021/10/19 10:20:43;;;;;;;24.17;16.33;;;14.50;85.20;;;;;;5035411;28;20225;-91
2021/10/19 10:23:28;;;;;;;23.60;15.77;;;14.60;85.50;;;;;;5035461;28;20691;-89
2021/10/19 10:25:55;;;;;;;20.13;13.27;;;14.50;85.50;;;;;;5036270;28;20202;-88
2021/10/19 10:28:32;;;;;;;26.67;17.17;;;14.60;85.00;;;;;;5035330;28;20640;-90
2021/10/19 10:31:04;;;;;;;30.33;20.53;;;14.70;85.50;;;;;;5035423;28;20167;-89
2021/10/19 10:33:42;;;;;;;18.80;14.53;;;14.70;85.70;;;;;;5035719;28;20168;-90
2021/10/19 10:36:10;;;;;;;23.53;17.03;;;14.70;85.30;;;;;;5035550;28;20663;-91
2021/10/19 10:38:37;;;;;;;20.90;13.63;;;14.70;86.00;;;;;;5035401;28;20187;-91
2021/10/19 10:41:15;;;;;;;20.83;14.53;;;14.60;85.70;;;;;;5035289;28;20227;-91
2021/10/19 10:43:55;;;;;;;23.67;16.30;;;14.70;85.80;;;;;;5035331;28;20533;-91
2021/10/19 10:46:21;;;;;;;24.20;15.17;;;14.70;86.00;;;;;;5035250;28;20261;-91
2021/10/19 10:48:47;;;;;;;20.60;15.20;;;14.70;85.60;;;;;;5038386;28;20180;-92
2021/10/19 10:51:24;;;;;;;23.90;16.43;;;14.70;85.90;;;;;;5039255;28;20187;-91
2021/10/19 10:53:49;;;;;;;21.13;14.93;;;14.70;86.10;;;;;;5040019;28;20647;-91
2021/10/19 10:56:16;;;;;;;21.50;14.57;;;14.70;86.10;;;;;;5039266;28;20208;-91
2021/10/19 10:58:43;;;;;;;19.40;14.00;;;14.70;86.10;;;;;;5039283;28;20176;-91
2021/10/19 11:01:23;;;;;;;20.33;16.77;;;14.80;86.00;;;;;;5039417;28;20208;-92
2021/10/19 11:03:54;;;;;;;19.03;13.03;;;14.70;86.40;;;;;;5039033;28;20168;-91
2021/10/19 11:06:22;;;;;;;20.13;14.77;;;14.70;86.10;;;;;;5038944;28;20196;-91
2021/10/19 11:08:55;;;;;;;19.73;15.83;;;14.70;86.20;;;;;;5038940;28;20187;-91
2021/10/19 11:11:21;;;;;;;18.60;14.70;;;14.70;86.50;;;;;;5039252;28;20210;-91
2021/10/19 11:13:59;;;;;;;20.67;16.23;;;14.70;86.50;;;;;;5038958;28;20215;-90
2021/10/19 11:16:30;;;;;;;19.07;13.30;;;14.70;86.50;;;;;;5038686;28;20199;-90
2021/10/19 11:18:56;;;;;;;22.83;17.33;;;14.70;86.10;;;;;;5038833;28;20180;-90
2021/10/19 11:21:22;;;;;;;19.80;15.70;;;14.80;86.40;;;;;;5038736;28;20299;-91
2021/10/19 11:23:48;;;;;;;24.90;16.13;;;14.80;86.50;;;;;;5038629;28;20212;-91
2021/10/19 11:26:14;;;;;;;21.63;16.90;;;14.80;86.50;;;;;;5038563;28;20253;-91
2021/10/19 11:28:42;;;;;;;18.73;15.00;;;14.80;86.30;;;;;;5038537;28;20215;-91
2021/10/19 11:31:08;;;;;;;19.37;15.37;;;14.80;86.50;;;;;;5038708;28;20180;-91
2021/10/19 11:33:36;;;;;;;18.77;16.63;;;14.80;86.70;;;;;;5038538;28;20233;-91
2021/10/19 11:36:03;;;;;;;19.53;15.17;;;14.80;86.90;;;;;;5056193;28;20230;-90
2021/10/19 11:38:28;;;;;;;23.07;16.00;;;14.80;86.30;;;;;;5038373;28;20184;-91
2021/10/19 11:41:07;;;;;;;19.37;14.97;;;14.80;86.70;;;;;;5038250;28;20190;-91
2021/10/19 11:43:35;;;;;;;18.67;15.93;;;14.80;86.20;;;;;;5056141;28;20164;-90
2021/10/19 11:46:06;;;;;;;20.47;14.93;;;14.80;86.60;;;;;;5038157;28;20265;-91
2021/10/19 11:48:33;;;;;;;24.00;16.17;;;14.80;86.60;;;;;;5038210;28;20168;-91
2021/10/19 11:51:01;;;;;;;19.70;15.80;;;14.80;86.90;;;;;;5038666;28;20184;-90
2021/10/19 11:53:30;;;;;;;19.50;17.17;;;14.80;87.20;;;;;;5038452;28;20238;-91
2021/10/19 11:55:56;;;;;;;27.80;17.03;;;14.80;87.00;;;;;;5038279;28;20215;-91
2021/10/19 11:58:25;;;;;;;20.03;15.97;;;14.90;87.10;;;;;;5056112;28;20549;-91
2021/10/19 12:00:52;;;;;;;18.97;16.63;;;15.00;87.50;;;;;;5037838;28;20186;-91
2021/10/19 12:03:18;;;;;;;19.97;14.90;;;15.00;87.50;;;;;;5038040;28;20179;-91
2021/10/19 12:05:44;;;;;;;23.37;16.80;;;15.00;87.20;;;;;;5038230;28;20180;-90
2021/10/19 12:08:11;;;;;;;18.80;14.40;;;15.00;87.20;;;;;;5056029;28;20252;-90
2021/10/19 12:10:37;;;;;;;19.47;16.00;;;14.90;87.50;;;;;;5038050;28;20222;-91
2021/10/19 12:13:02;;;;;;;19.63;15.90;;;15.00;87.50;;;;;;5038096;28;20640;-90
2021/10/19 12:15:30;;;;;;;19.93;16.70;;;15.00;87.70;;;;;;5037624;28;20550;-90
2021/10/19 12:18:02;;;;;;;18.07;14.53;;;15.00;87.80;;;;;;5037690;28;20180;-89
2021/10/19 12:20:33;;;;;;;19.17;15.80;;;14.90;87.90;;;;;;5037685;28;20176;-89
2021/10/19 12:23:02;;;;;;;23.03;17.23;;;14.90;88.00;;;;;;5037545;28;20202;-89
2021/10/19 12:25:37;;;;;;;20.40;15.33;;;14.80;88.10;;;;;;5037695;28;20172;-90
2021/10/19 12:28:04;;;;;;;20.13;15.97;;;14.80;88.30;;;;;;5037514;28;20172;-90